CheckWX is a tool to help pilots better visualize weather data.  It is not intended as a substitute for an official pre-flight weather briefing.

08:48:37 UTC

49A METAR
Gilmer County Airport
Ellijay, Georgia, USA
Current

34 mins ago

K49A 190815Z AUTO 05004KT 10SM OVC110 04/M02 A3040 RMK AO2 T00401018
Observed
Feb-19 @ 08:15 UTC
Wind
  • 050° at 4 KTS
Visibility
10 SM
Flight Rules
VFR
Cloud Levels
  • Overcast at 11,000' AGL
Temperature
C / 39°F
Dewpoint
-2°C / 28°F
Humidity
65%
Altimeter
30.4" Hg
Pressure
1029.41 hPa
Previous

54 mins ago

K49A 190755Z AUTO 02003KT 10SM OVC110 04/M02 A3039 RMK AO2 T00381018
Observed
Feb-19 @ 07:55 UTC
Wind
  • 020° at 3 KTS
Visibility
10 SM
Flight Rules
VFR
Cloud Levels
  • Overcast at 11,000' AGL
Temperature
C / 39°F
Dewpoint
-2°C / 28°F
Humidity
65%
Altimeter
30.39" Hg
Pressure
1029.11 hPa
Previous

1 hour ago

K49A 190735Z AUTO 02009KT 10SM OVC120 04/M01 A3038 RMK AO2 T00371015
Observed
Feb-19 @ 07:35 UTC
Wind
  • 020° at 9 KTS
Visibility
10 SM
Flight Rules
VFR
Cloud Levels
  • Overcast at 12,000' AGL
Temperature
C / 39°F
Dewpoint
-2°C / 28°F
Humidity
65%
Altimeter
30.38" Hg
Pressure
1028.81 hPa